Impacts METAR Board
IDs:

KCLE - Cleveland/Hopkins In, OH, US

Updated at: 1200 UTC 09 Jul 2020
Potential Impact None Slight Moderate High
Time 09/00Z 09/01Z 09/02Z 09/03Z 09/04Z 09/05Z 09/06Z 09/07Z 09/08Z 09/09Z 09/10Z 09/11Z 09/12Z
Temp81 82 80 77 77 73 74 72 72 71 70 72 76
Dewpt67 67 68 68 68 69 69 68 68 68 68 68 69
Altim29.93 29.93 29.95 29.96 29.96 29.96 29.95 29.94 29.94 29.94 29.95 29.97 29.99
VIS10 10 10 10 10 10 10 10 10 10 10 10 10
CIG-- 150 250 250 -- -- -- -- -- -- -- -- --
CoverSCTBKNBKNBKNSCTSCTFEWCLRCLRCLRCLRFEWFEW
FltCatVFRVFRVFRVFRVFRVFRVFRVFRVFRVFRVFRVFRVFR
WXTS------------------------
WDir24035020023000200190260024000
WSpd6 3 5 3 0 0 4 3 3 0 5 0 0
WGst-- -- -- -- -- -- -- -- -- -- -- -- --
Raw hourly METARs
KCLE 082351Z 24006KT 10SM TS SCT065CB SCT090 27/19 A2993 RMK AO2 SLP128 OCNL LTGIC SW TS SW MOV E T02720194 10344 20272 55000 $
KCLE 090051Z 35003KT 10SM SCT090 BKN150 28/19 A2993 RMK AO2 TSE29 SLP129 T02780194 $
KCLE 090151Z 20005KT 10SM SCT090 SCT150 BKN250 27/20 A2995 RMK AO2 LTG DSNT S SLP135 T02670200 $
KCLE 090251Z 23003KT 10SM FEW150 BKN250 25/20 A2996 RMK AO2 SLP137 T02500200 53009 $
KCLE 090351Z 00000KT 10SM SCT250 25/20 A2996 RMK AO2 SLP138 T02500200 $
KCLE 090451Z 00000KT 10SM SCT250 23/21 A2996 RMK AO2 SLP139 T02280206 403440206 $
KCLE 090551Z 20004KT 10SM FEW250 23/21 A2995 RMK AO2 SLP134 T02330206 10283 20222 58002 $
KCLE 090651Z 19003KT 10SM CLR 22/20 A2994 RMK AO2 SLP131 T02220200 $
KCLE 090751Z 26003KT 10SM CLR 22/20 A2994 RMK AO2 SLP130 T02220200 $
KCLE 090851Z 00000KT 10SM CLR 22/20 A2994 RMK AO2 SLP131 T02170200 55003 $
KCLE 090951Z 24005KT 10SM CLR 21/20 A2995 RMK AO2 SLP134 T02110200 $
KCLE 091051Z COR 00000KT 10SM FEW150 FEW250 22/20 A2997 RMK AO2 SLP140 T02220200 $
KCLE 091151Z 00000KT 10SM FEW150 FEW250 24/21 A2999 RMK AO2 SLP147 T02440206 10244 20206 53014 $



Page loaded:  12:20 UTC  |   05:20 AM Pacific  |   06:20 AM Mountain  |   07:20 AM Central  |   08:20 AM Eastern

 

ADVISORIES

FORECASTS

FORECASTS

OBSERVATIONS

USER TOOLS

ABOUT US